Time;durP1;ratioP1;P1;durP2;ratioP2;P2;SDS_P1;SDS_P2;PMS_P1;PMS_P2;Temp;Humidity;BMP_temperature;BMP_pressure;BME280_temperature;BME280_humidity;BME280_pressure;Samples;Min_cycle;Max_cycle;Signal;HPM_P1;HPM_P2
2021/01/15 00:02:26;;;;;;;4.27;2.80;;;0.10;99.90;;;0.59;100.00;98227.84;5004061;28;20487;-82
2021/01/15 00:04:54;;;;;;;3.73;2.70;;;0.10;99.90;;;0.62;100.00;98237.91;5003314;28;20506;-82
2021/01/15 00:07:21;;;;;;;4.27;3.10;;;0.00;99.90;;;0.62;100.00;98232.75;5000268;28;20466;-82
2021/01/15 00:09:49;;;;;;;7.07;2.70;;;0.10;99.90;;;0.60;100.00;98232.84;4998575;28;20483;-81
2021/01/15 00:12:16;;;;;;;3.93;2.97;;;0.10;99.90;;;0.57;100.00;98234.84;5000781;28;21013;-81
2021/01/15 00:14:45;;;;;;;6.60;3.00;;;0.10;99.90;;;0.49;100.00;98238.84;4997092;28;20517;-82
2021/01/15 00:17:12;;;;;;;7.43;3.10;;;0.00;99.90;;;0.47;100.00;98237.34;4998499;28;20798;-82
2021/01/15 00:19:40;;;;;;;4.43;2.53;;;0.00;99.90;;;0.52;100.00;98232.66;5000801;28;20492;-82
2021/01/15 00:22:07;;;;;;;6.07;2.60;;;0.00;99.90;;;0.56;100.00;98234.03;4997885;28;20463;-81
2021/01/15 00:24:35;;;;;;;3.77;3.03;;;0.00;99.90;;;0.52;100.00;98233.47;4999988;28;20503;-81
2021/01/15 00:27:02;;;;;;;5.33;2.80;;;0.10;99.90;;;0.44;100.00;98240.16;5000625;28;20471;-82
2021/01/15 00:29:30;;;;;;;5.23;2.90;;;0.00;99.90;;;0.48;100.00;98237.22;4999934;28;20495;-82
2021/01/15 00:31:59;;;;;;;2.97;2.20;;;0.00;99.90;;;0.49;100.00;98245.75;4998243;28;20487;-81
2021/01/15 00:34:27;;;;;;;5.20;2.77;;;0.10;99.90;;;0.39;100.00;98248.22;4997640;28;20872;-81
2021/01/15 00:36:54;;;;;;;4.00;2.53;;;0.00;99.90;;;0.41;100.00;98250.69;5000353;28;20479;-82
2021/01/15 00:39:22;;;;;;;2.53;2.30;;;-0.10;99.90;;;0.45;100.00;98234.06;4999198;28;20462;-81
2021/01/15 00:41:49;;;;;;;3.87;2.30;;;-0.10;99.90;;;0.43;100.00;98239.31;5001027;28;20471;-82
2021/01/15 00:44:21;;;;;;;5.07;2.60;;;-0.10;99.90;;;0.43;100.00;98243.66;4996712;28;20503;-81
2021/01/15 00:46:54;;;;;;;2.50;2.17;;;0.00;99.90;;;0.39;100.00;98244.81;5000523;28;20518;-81
2021/01/15 00:49:23;;;;;;;3.40;2.33;;;-0.10;99.90;;;0.31;100.00;98242.84;5000613;28;20446;-81
2021/01/15 00:51:53;;;;;;;8.83;2.80;;;-0.10;99.90;;;0.33;100.00;98248.69;4997848;28;20467;-82
2021/01/15 00:54:21;;;;;;;6.37;3.50;;;-0.20;99.90;;;0.38;100.00;98250.91;4995762;28;20560;-82
2021/01/15 00:56:48;;;;;;;6.93;2.57;;;-0.10;99.90;;;0.36;100.00;98252.78;5002374;28;20476;-81
2021/01/15 00:59:16;;;;;;;2.67;2.47;;;-0.20;99.90;;;0.39;100.00;98255.09;5004551;28;20471;-81
2021/01/15 01:01:43;;;;;;;4.00;2.87;;;-0.10;99.90;;;0.36;100.00;98253.59;5004136;28;20486;-82
2021/01/15 01:04:11;;;;;;;4.50;2.70;;;-0.10;99.90;;;0.40;100.00;98255.00;5002873;28;20577;-81
2021/01/15 01:06:39;;;;;;;2.80;2.30;;;-0.20;99.90;;;0.39;100.00;98261.06;5003065;28;20472;-82
2021/01/15 01:09:07;;;;;;;3.00;2.40;;;-0.20;99.90;;;0.37;100.00;98260.38;5001829;28;20522;-81
2021/01/15 01:11:35;;;;;;;3.67;2.53;;;-0.20;99.90;;;0.39;100.00;98263.63;5003478;28;20464;-81
2021/01/15 01:14:04;;;;;;;5.00;3.00;;;-0.20;99.90;;;0.43;100.00;98262.47;5000637;28;20887;-81
2021/01/15 01:16:32;;;;;;;4.13;2.83;;;-0.20;99.90;;;0.35;100.00;98263.97;5004190;28;20471;-81
2021/01/15 01:19:00;;;;;;;6.50;2.83;;;-0.20;99.90;;;0.34;100.00;98270.91;5002827;28;20502;-82
2021/01/15 01:21:30;;;;;;;4.80;2.87;;;-0.30;99.90;;;0.39;100.00;98267.97;5002639;28;20493;-81
2021/01/15 01:23:59;;;;;;;5.33;2.67;;;-0.20;99.90;;;0.33;100.00;98274.41;5003922;28;20470;-81
2021/01/15 01:26:26;;;;;;;3.50;2.27;;;-0.20;99.90;;;0.32;100.00;98285.63;5002794;28;20472;-81
2021/01/15 01:28:54;;;;;;;8.60;3.10;;;-0.20;99.90;;;0.34;100.00;98283.75;5003753;28;20490;-82
2021/01/15 01:31:22;;;;;;;5.63;2.50;;;-0.30;99.90;;;0.33;100.00;98289.84;5004018;28;20463;-81
2021/01/15 01:33:49;;;;;;;4.03;2.43;;;-0.30;99.90;;;0.28;100.00;98289.34;5001172;28;20471;-81
2021/01/15 01:36:17;;;;;;;3.57;2.40;;;-0.30;99.90;;;0.30;100.00;98295.22;5003013;28;20499;-81
2021/01/15 01:38:44;;;;;;;3.47;2.53;;;-0.30;99.90;;;0.28;100.00;98294.50;5001398;28;20470;-82
2021/01/15 01:41:13;;;;;;;3.47;2.20;;;-0.30;99.90;;;0.21;100.00;98306.19;5003248;28;21017;-82
2021/01/15 01:43:40;;;;;;;2.33;2.13;;;-0.40;99.90;;;0.27;100.00;98315.19;5002527;28;20471;-82
2021/01/15 01:46:09;;;;;;;4.80;2.87;;;-0.30;99.90;;;0.25;100.00;98307.59;5001831;28;20499;-82
2021/01/15 01:48:38;;;;;;;3.13;2.40;;;-0.40;99.90;;;0.29;100.00;98316.72;5002950;28;20911;-82
2021/01/15 01:51:07;;;;;;;2.43;2.23;;;-0.40;99.90;;;0.29;100.00;98319.28;5002745;28;20915;-81
2021/01/15 01:53:39;;;;;;;4.83;2.80;;;-0.30;99.90;;;0.22;100.00;98315.53;5004081;28;20469;-81
2021/01/15 01:56:07;;;;;;;2.87;2.50;;;-0.40;99.90;;;0.22;100.00;98318.09;5003173;28;20474;-82
2021/01/15 01:58:37;;;;;;;2.63;2.20;;;-0.30;99.90;;;0.23;100.00;98322.31;5003081;28;20518;-81
2021/01/15 02:01:06;;;;;;;4.57;2.40;;;-0.40;99.90;;;0.17;100.00;98321.97;5001943;28;20487;-81
2021/01/15 02:03:35;;;;;;;5.10;2.53;;;-0.30;99.90;;;0.18;100.00;98326.97;5000720;28;20981;-81
2021/01/15 02:06:03;;;;;;;3.97;2.53;;;-0.40;99.90;;;0.20;100.00;98330.28;5001388;28;20530;-82
2021/01/15 02:08:31;;;;;;;2.10;1.80;;;-0.40;99.90;;;0.14;100.00;98319.63;5001241;28;20533;-81
2021/01/15 02:11:12;;;;;;;7.60;3.07;;;-0.50;99.90;;;0.18;100.00;98331.31;5002524;28;20998;-82
2021/01/15 02:13:58;;;;;;;4.03;2.60;;;-0.50;99.90;;;0.13;100.00;98331.66;5001006;28;20517;-82
2021/01/15 02:16:30;;;;;;;3.90;2.07;;;-0.50;99.90;;;0.15;100.00;98327.22;5001027;28;20474;-81
2021/01/15 02:19:20;;;;;;;2.53;1.90;;;-0.50;99.90;;;0.17;100.00;98329.69;5002725;28;20471;-81
2021/01/15 02:22:35;;;;;;;3.63;2.10;;;-0.50;99.90;;;0.18;100.00;98329.56;5002455;28;20464;-82
2021/01/15 02:26:14;;;;;;;4.80;2.30;;;-0.50;99.90;;;0.15;100.00;98337.50;5002043;28;20504;-82
2021/01/15 02:29:14;;;;;;;3.83;2.30;;;-0.60;99.90;;;0.12;100.00;98339.47;5002216;28;20480;-82
2021/01/15 02:32:29;;;;;;;4.00;2.30;;;-0.60;99.90;;;0.11;100.00;98341.22;5001281;28;20468;-81
2021/01/15 02:35:14;;;;;;;2.60;2.00;;;-0.60;99.90;;;0.09;100.00;98343.09;5000890;28;20478;-82
2021/01/15 02:38:33;;;;;;;7.17;2.70;;;-0.70;99.90;;;0.10;100.00;98344.75;5001544;28;20466;-81
2021/01/15 02:41:22;;;;;;;2.90;2.20;;;-0.60;99.90;;;0.08;100.00;98356.06;5001117;28;20474;-82
2021/01/15 02:43:54;;;;;;;4.10;2.63;;;-0.60;99.90;;;0.03;100.00;98351.28;5001251;28;20490;-81
2021/01/15 02:46:47;;;;;;;5.93;2.30;;;-0.70;99.90;;;0.08;100.00;98358.63;5001562;28;20478;-81
2021/01/15 02:49:16;;;;;;;3.13;2.30;;;-0.60;99.90;;;0.09;100.00;98358.53;5000468;28;20475;-82
2021/01/15 02:51:46;;;;;;;4.03;2.43;;;-0.60;99.90;;;0.01;100.00;98368.53;5002714;28;20487;-82
2021/01/15 02:54:13;;;;;;;2.00;1.90;;;-0.70;99.90;;;-0.02;100.00;98366.22;5001153;28;20479;-81
2021/01/15 02:56:41;;;;;;;6.17;2.10;;;-0.70;99.90;;;0.00;100.00;98372.06;5002182;28;20470;-82
2021/01/15 02:59:09;;;;;;;1.70;1.60;;;-0.60;99.90;;;-0.04;100.00;98368.09;5000757;28;20466;-82
2021/01/15 03:01:51;;;;;;;2.10;1.87;;;-0.70;99.90;;;-0.09;100.00;98380.44;4997082;28;20502;-82
2021/01/15 03:04:34;;;;;;;2.07;1.80;;;-0.80;99.90;;;-0.15;100.00;98378.31;4999061;28;20896;-81
2021/01/15 03:07:04;;;;;;;2.33;2.13;;;-0.90;99.90;;;-0.30;100.00;98379.44;5000772;28;20467;-82
2021/01/15 03:09:38;;;;;;;3.20;1.90;;;-1.00;99.90;;;-0.26;100.00;98384.25;5002001;28;20463;-81
2021/01/15 03:12:07;;;;;;;5.43;2.10;;;-1.00;99.90;;;-0.30;100.00;98387.97;5000087;28;20478;-82
2021/01/15 03:14:37;;;;;;;4.20;2.30;;;-1.00;99.90;;;-0.36;100.00;98382.44;5001236;28;20471;-82
2021/01/15 03:17:09;;;;;;;4.37;2.47;;;-1.20;99.90;;;-0.42;100.00;98391.41;5000387;28;20483;-82
2021/01/15 03:19:38;;;;;;;3.53;2.70;;;-1.30;99.90;;;-0.46;100.00;98391.75;4999962;28;20459;-81
2021/01/15 03:22:16;;;;;;;3.20;1.97;;;-1.10;99.90;;;-0.43;100.00;98387.22;5000523;28;20822;-82
2021/01/15 03:24:53;;;;;;;3.37;2.50;;;-1.20;99.90;;;-0.39;100.00;98398.06;5001075;28;20499;-82
2021/01/15 03:27:22;;;;;;;2.17;1.87;;;-1.20;99.90;;;-0.38;100.00;98399.72;5000447;28;20462;-82
2021/01/15 03:29:50;;;;;;;3.20;2.10;;;-1.20;99.90;;;-0.49;100.00;98397.09;5001225;28;20916;-81
2021/01/15 03:32:19;;;;;;;2.50;2.20;;;-1.30;99.90;;;-0.45;100.00;98413.94;5001902;28;20463;-82
2021/01/15 03:34:48;;;;;;;3.30;2.57;;;-1.30;99.90;;;-0.54;100.00;98411.09;4997842;28;20531;-82
2021/01/15 03:37:15;;;;;;;6.20;2.77;;;-1.30;99.90;;;-0.55;100.00;98417.13;5000612;28;20474;-82
2021/01/15 03:39:43;;;;;;;3.43;2.53;;;-1.30;99.90;;;-0.56;100.00;98420.66;4999903;28;20479;-81
2021/01/15 03:42:11;;;;;;;2.50;2.03;;;-1.30;99.90;;;-0.63;100.00;98427.16;4999879;28;20533;-82
2021/01/15 03:44:38;;;;;;;6.60;2.60;;;-1.40;99.90;;;-0.60;100.00;98424.38;4999335;28;20506;-82
2021/01/15 03:47:06;;;;;;;8.40;2.60;;;-1.40;99.90;;;-0.63;100.00;98427.16;5001006;28;20468;-81
2021/01/15 03:49:33;;;;;;;3.90;2.87;;;-1.40;99.90;;;-0.60;100.00;98428.69;4999889;28;20461;-82
2021/01/15 03:52:02;;;;;;;4.87;2.67;;;-1.30;99.90;;;-0.56;100.00;98430.94;4999720;28;20883;-82
2021/01/15 03:54:29;;;;;;;4.47;2.33;;;-1.30;99.90;;;-0.54;100.00;98434.19;5002379;28;20459;-82
2021/01/15 03:56:57;;;;;;;2.50;2.30;;;-1.30;99.90;;;-0.59;100.00;98438.81;5008661;28;20474;-81
2021/01/15 03:59:25;;;;;;;3.17;2.37;;;-1.30;99.90;;;-0.62;100.00;98439.03;5010399;28;20472;-82
2021/01/15 04:01:52;;;;;;;2.50;2.23;;;-1.30;99.90;;;-0.55;100.00;98445.38;5005818;28;20616;-82
2021/01/15 04:04:20;;;;;;;5.97;2.90;;;-1.30;99.90;;;-0.56;100.00;98436.06;5003506;28;21045;-82
2021/01/15 04:06:48;;;;;;;4.30;2.00;;;-1.30;99.90;;;-0.58;100.00;98439.66;5001979;28;20452;-81
2021/01/15 04:09:16;;;;;;;5.90;2.73;;;-1.30;99.90;;;-0.63;100.00;98446.88;5001424;28;20938;-81
2021/01/15 04:11:43;;;;;;;3.20;2.43;;;-1.40;99.90;;;-0.67;100.00;98453.97;5000603;28;20464;-82
2021/01/15 04:14:11;;;;;;;3.23;2.27;;;-1.50;99.90;;;-0.61;100.00;98460.41;4998590;28;20474;-81
2021/01/15 04:16:38;;;;;;;7.60;2.53;;;-1.40;99.90;;;-0.65;100.00;98456.41;5001930;28;20470;-82
2021/01/15 04:19:06;;;;;;;3.83;2.80;;;-1.40;99.90;;;-0.63;100.00;98460.53;5001207;28;20590;-82
2021/01/15 04:21:34;;;;;;;3.87;2.40;;;-1.40;99.90;;;-0.70;100.00;98461.88;5000280;28;20489;-82
2021/01/15 04:24:01;;;;;;;3.60;2.10;;;-1.40;99.90;;;-0.71;100.00;98460.22;4999270;28;20466;-81
2021/01/15 04:26:30;;;;;;;3.97;2.30;;;-1.50;99.90;;;-0.68;100.00;98470.28;5000205;28;20495;-82
2021/01/15 04:28:58;;;;;;;3.03;2.30;;;-1.40;99.90;;;-0.71;100.00;98465.38;4999368;28;20499;-81
2021/01/15 04:31:26;;;;;;;4.30;2.80;;;-1.50;99.90;;;-0.78;100.00;98464.16;5001167;28;20474;-81
2021/01/15 04:33:54;;;;;;;5.00;2.50;;;-1.60;99.90;;;-0.85;100.00;98462.09;4999423;28;20473;-81
2021/01/15 04:36:21;;;;;;;2.73;2.30;;;-1.60;99.90;;;-0.89;100.00;98469.19;4999540;28;20476;-81
2021/01/15 04:38:49;;;;;;;4.53;2.43;;;-1.70;99.90;;;-0.89;100.00;98471.75;4999836;28;20494;-81
2021/01/15 04:41:22;;;;;;;3.50;2.00;;;-1.60;99.90;;;-0.94;100.00;98478.16;5001066;28;20494;-80
2021/01/15 04:43:55;;;;;;;3.57;2.33;;;-1.70;99.90;;;-0.98;100.00;98476.72;5001052;28;20467;-80
2021/01/15 04:46:24;;;;;;;2.27;2.07;;;-1.80;99.90;;;-0.99;100.00;98483.59;5000491;28;20552;-82
2021/01/15 04:48:54;;;;;;;4.27;2.20;;;-1.80;99.90;;;-0.96;100.00;98480.81;4998265;28;20459;-81
2021/01/15 04:51:24;;;;;;;2.50;1.73;;;-1.70;99.90;;;-1.02;100.00;98482.06;4997837;28;20459;-81
2021/01/15 04:53:57;;;;;;;2.20;2.00;;;-1.80;99.90;;;-0.96;100.00;98485.94;5000864;28;20827;-82
2021/01/15 04:56:40;;;;;;;2.33;2.00;;;-1.70;99.90;;;-1.00;100.00;98479.38;5000415;28;20550;-81
2021/01/15 04:59:09;;;;;;;2.80;2.53;;;-1.70;99.90;;;-1.06;100.00;98484.91;4999947;28;20524;-81
2021/01/15 05:01:42;;;;;;;31.07;11.20;;;-1.90;99.90;;;-1.11;100.00;98481.84;4998788;28;20482;-78
2021/01/15 05:04:19;;;;;;;3.30;2.23;;;-1.90;99.90;;;-1.08;100.00;98484.22;4998308;28;20550;-79
2021/01/15 05:06:49;;;;;;;6.03;2.60;;;-1.80;99.90;;;-1.17;100.00;98488.22;4998718;28;20526;-78
2021/01/15 05:09:26;;;;;;;2.77;2.30;;;-1.90;99.90;;;-1.18;100.00;98488.31;5000527;28;20883;-78
2021/01/15 05:11:54;;;;;;;2.00;1.83;;;-2.00;99.90;;;-1.20;100.00;98495.28;4999158;28;20464;-78
2021/01/15 05:14:23;;;;;;;2.60;2.03;;;-2.00;99.90;;;-1.19;100.00;98504.63;4997141;28;20463;-79
2021/01/15 05:16:51;;;;;;;6.20;2.60;;;-1.90;99.90;;;-1.17;100.00;98501.03;4998122;28;21041;-78
2021/01/15 05:19:19;;;;;;;4.30;2.33;;;-1.90;99.90;;;-1.17;100.00;98510.47;4999802;28;20510;-77
2021/01/15 05:21:51;;;;;;;8.00;4.00;;;-1.90;99.90;;;-1.15;100.00;98506.06;4999236;28;20493;-78
2021/01/15 05:24:20;;;;;;;3.80;2.43;;;-1.80;99.90;;;-1.17;100.00;98507.91;4999337;28;20478;-78
2021/01/15 05:26:48;;;;;;;2.37;1.90;;;-1.90;99.90;;;-1.18;100.00;98509.63;4998477;28;20502;-78
2021/01/15 05:29:16;;;;;;;3.40;2.27;;;-1.90;99.90;;;-1.17;100.00;98515.59;4998995;28;20483;-79
2021/01/15 05:31:54;;;;;;;3.57;2.07;;;-1.90;99.90;;;-1.15;100.00;98524.03;4999492;28;21053;-78
2021/01/15 05:34:24;;;;;;;5.43;2.10;;;-1.90;99.90;;;-1.13;100.00;98524.75;4998627;28;20520;-78
2021/01/15 05:36:52;;;;;;;3.13;1.73;;;-1.80;99.90;;;-1.10;100.00;98529.66;4999271;28;20459;-79
2021/01/15 05:39:23;;;;;;;3.80;2.40;;;-1.80;99.90;;;-1.12;100.00;98532.34;4998711;28;20458;-79
2021/01/15 05:41:58;;;;;;;2.30;2.03;;;-1.80;99.90;;;-1.13;100.00;98540.97;5000263;28;20536;-79
2021/01/15 05:44:30;;;;;;;5.87;2.10;;;-1.80;99.90;;;-1.06;100.00;98537.06;5002584;28;21097;-78
2021/01/15 05:47:00;;;;;;;2.50;1.77;;;-1.80;99.90;;;-1.06;100.00;98538.81;5004144;28;20854;-79
2021/01/15 05:49:28;;;;;;;2.23;1.80;;;-1.80;99.90;;;-1.06;100.00;98546.50;5003763;28;20972;-78
2021/01/15 05:52:07;;;;;;;8.20;2.10;;;-1.70;99.90;;;-1.05;100.00;98550.72;5003007;28;20959;-78
2021/01/15 05:54:35;;;;;;;4.80;2.13;;;-1.70;99.90;;;-1.06;100.00;98549.88;5003675;28;20586;-79
2021/01/15 05:57:04;;;;;;;2.30;1.90;;;-1.70;99.90;;;-1.13;100.00;98555.53;5003190;28;21120;-79
2021/01/15 05:59:38;;;;;;;1.80;1.70;;;-1.80;99.90;;;-1.17;100.00;98557.47;5003190;28;20447;-78
2021/01/15 06:02:07;;;;;;;4.20;2.30;;;-1.90;99.90;;;-1.23;100.00;98567.31;5002664;28;20475;-78
2021/01/15 06:04:37;;;;;;;3.00;2.03;;;-2.00;99.90;;;-1.29;100.00;98565.16;5002965;28;20442;-79
2021/01/15 06:07:21;;;;;;;3.73;1.90;;;-2.00;99.90;;;-1.36;100.00;98563.91;5003185;28;20457;-78
2021/01/15 06:09:59;;;;;;;3.10;2.30;;;-2.20;99.90;;;-1.34;100.00;98565.44;5003592;28;20462;-78
2021/01/15 06:12:39;;;;;;;4.07;2.20;;;-2.20;99.90;;;-1.42;100.00;98564.31;5003230;28;20486;-79
2021/01/15 06:15:09;;;;;;;2.20;1.93;;;-2.20;99.90;;;-1.48;100.00;98572.38;5003188;28;20518;-78
2021/01/15 06:17:40;;;;;;;2.20;2.00;;;-2.20;99.90;;;-1.50;100.00;98572.50;5001562;28;20448;-78
2021/01/15 06:20:09;;;;;;;4.60;2.00;;;-2.30;99.90;;;-1.57;100.00;98582.34;5002383;28;20459;-78
2021/01/15 06:22:44;;;;;;;2.43;1.87;;;-2.40;99.90;;;-1.55;100.00;98579.66;5003302;28;20524;-79
2021/01/15 06:25:18;;;;;;;3.00;2.27;;;-2.30;99.90;;;-1.53;100.00;98578.63;5004038;28;20556;-78
2021/01/15 06:27:47;;;;;;;4.10;2.43;;;-2.30;99.90;;;-1.65;100.00;98584.56;5002986;28;20462;-78
2021/01/15 06:30:18;;;;;;;3.93;1.70;;;-2.40;99.90;;;-1.66;100.00;98589.75;4999997;28;20564;-78
2021/01/15 06:32:48;;;;;;;13.20;1.97;;;-2.30;99.90;;;-1.67;100.00;98596.66;5002388;28;21213;-78
2021/01/15 06:35:27;;;;;;;3.67;2.20;;;-2.40;99.90;;;-1.72;100.00;98598.69;5001252;28;20476;-78
2021/01/15 06:38:01;;;;;;;7.87;4.87;;;-2.40;99.90;;;-1.73;100.00;98609.00;5003044;28;20528;-78
2021/01/15 06:40:37;;;;;;;5.97;2.63;;;-2.50;99.90;;;-1.79;100.00;98611.97;5002901;28;20461;-78
2021/01/15 06:43:07;;;;;;;2.60;2.03;;;-2.60;99.90;;;-1.84;100.00;98621.69;5002235;28;20456;-78
2021/01/15 06:45:40;;;;;;;2.50;2.30;;;-2.60;99.90;;;-1.78;100.00;98623.88;5002623;28;20545;-78
2021/01/15 06:48:12;;;;;;;4.33;2.20;;;-2.60;99.90;;;-1.87;100.00;98625.25;5002328;28;20454;-78
2021/01/15 06:50:41;;;;;;;4.70;2.60;;;-2.60;99.90;;;-1.85;100.00;98622.63;5002438;28;20426;-78
2021/01/15 06:53:30;;;;;;;2.50;1.80;;;-2.70;99.90;;;-1.87;100.00;98630.38;5001788;28;20503;-78
2021/01/15 06:56:00;;;;;;;3.20;2.00;;;-2.60;99.90;;;-1.95;100.00;98627.50;4998185;28;20994;-78
2021/01/15 06:58:30;;;;;;;2.03;1.87;;;-2.80;99.90;;;-1.94;100.00;98638.56;5002691;28;20460;-78
2021/01/15 07:01:18;;;;;;;2.20;2.00;;;-2.80;99.90;;;-1.95;100.00;98635.19;5002075;28;20524;-78
2021/01/15 07:04:27;;;;;;;4.73;2.37;;;-2.80;99.90;;;-2.01;100.00;98647.53;5001971;28;20454;-78
2021/01/15 07:07:14;;;;;;;3.73;2.67;;;-2.80;99.90;;;-2.05;100.00;98641.78;5001333;28;20512;-78
2021/01/15 07:09:45;;;;;;;3.63;2.47;;;-2.70;99.90;;;-2.04;100.00;98644.22;5003222;28;20914;-78
2021/01/15 07:12:14;;;;;;;1.90;1.80;;;-2.70;99.90;;;-2.10;100.00;98651.47;5001701;28;20455;-79
2021/01/15 07:14:51;;;;;;;5.07;2.00;;;-2.80;99.90;;;-1.99;100.00;98650.81;5002382;28;20962;-78
2021/01/15 07:17:32;;;;;;;3.70;2.60;;;-2.70;99.90;;;-1.98;100.00;98655.03;4999254;28;20461;-78
2021/01/15 07:20:17;;;;;;;5.87;2.23;;;-2.60;99.90;;;-1.99;100.00;98664.47;5001742;28;20513;-78
2021/01/15 07:22:52;;;;;;;2.67;2.10;;;-2.70;99.90;;;-2.00;100.00;98673.06;5000884;28;20466;-79
2021/01/15 07:25:22;;;;;;;3.73;2.27;;;-2.70;99.90;;;-1.97;100.00;98670.28;5001308;28;20973;-78
2021/01/15 07:27:50;;;;;;;2.10;1.83;;;-2.70;99.90;;;-1.96;100.00;98677.06;5002180;28;20470;-78
2021/01/15 07:30:24;;;;;;;3.40;1.73;;;-2.60;99.90;;;-1.93;100.00;98682.00;5001202;28;20452;-78
2021/01/15 07:32:54;;;;;;;2.87;1.80;;;-2.60;99.90;;;-1.97;100.00;98683.09;5001561;28;20468;-78
2021/01/15 07:35:26;;;;;;;5.50;2.40;;;-2.60;99.90;;;-1.98;100.00;98686.59;5001058;28;20455;-79
2021/01/15 07:38:09;;;;;;;3.10;2.23;;;-2.70;99.90;;;-2.05;100.00;98693.00;5001180;28;20460;-78
2021/01/15 07:40:37;;;;;;;2.20;2.00;;;-2.80;99.90;;;-2.10;100.00;98698.41;5001976;28;20456;-78
2021/01/15 07:43:07;;;;;;;3.60;1.53;;;-2.90;99.90;;;-2.08;100.00;98693.16;5001701;28;20512;-78
2021/01/15 07:45:58;;;;;;;2.73;1.77;;;-2.90;99.90;;;-2.04;100.00;98699.75;4999611;28;20501;-78
2021/01/15 07:48:27;;;;;;;1.87;1.70;;;-2.80;99.90;;;-2.05;100.00;98703.25;5001438;28;20860;-78
2021/01/15 07:50:56;;;;;;;3.70;2.20;;;-2.80;99.90;;;-2.06;100.00;98707.56;5001378;28;21018;-78
2021/01/15 07:53:41;;;;;;;2.50;2.00;;;-2.80;99.90;;;-2.09;100.00;98712.03;5000484;28;20466;-78
2021/01/15 07:56:10;;;;;;;5.53;1.80;;;-2.90;99.90;;;-2.05;100.00;98714.31;5001259;28;21026;-78
2021/01/15 07:58:50;;;;;;;1.70;1.60;;;-2.80;99.90;;;-2.01;100.00;98719.28;5001221;28;20825;-77
2021/01/15 08:01:19;;;;;;;3.63;1.67;;;-2.70;99.90;;;-2.04;100.00;98720.25;5001246;28;20550;-78
2021/01/15 08:03:52;;;;;;;4.43;2.33;;;-2.80;99.90;;;-2.01;100.00;98735.44;5001343;28;20462;-78
2021/01/15 08:06:22;;;;;;;3.50;1.93;;;-2.80;99.90;;;-2.05;100.00;98734.00;5000922;28;20525;-79
2021/01/15 08:09:01;;;;;;;8.53;2.33;;;-2.70;99.90;;;-2.00;100.00;98742.22;5001532;28;20455;-78
2021/01/15 08:11:30;;;;;;;2.93;2.13;;;-2.70;99.90;;;-2.01;100.00;98740.56;5001451;28;20573;-79
2021/01/15 08:14:11;;;;;;;10.13;3.10;;;-2.70;99.90;;;-1.93;100.00;98752.91;5000901;28;20482;-79
2021/01/15 08:16:42;;;;;;;4.13;2.50;;;-2.60;99.90;;;-1.85;100.00;98751.56;5000988;28;20519;-78
2021/01/15 08:19:12;;;;;;;3.93;2.90;;;-2.50;99.90;;;-1.83;100.00;98759.13;5000911;28;20462;-78
2021/01/15 08:21:44;;;;;;;4.07;2.67;;;-2.50;99.90;;;-1.81;100.00;98763.28;5000960;28;20541;-78
2021/01/15 08:24:13;;;;;;;4.70;2.27;;;-2.40;99.90;;;-1.75;100.00;98770.59;5000930;28;20455;-79
2021/01/15 08:26:47;;;;;;;3.40;2.73;;;-2.50;99.90;;;-1.78;100.00;98775.91;5000675;28;20504;-78
2021/01/15 08:29:17;;;;;;;4.60;2.10;;;-2.40;99.90;;;-1.73;100.00;98783.28;5000319;28;20486;-79
2021/01/15 08:31:44;;;;;;;11.80;2.57;;;-2.50;99.90;;;-1.71;100.00;98776.34;5001256;28;20796;-78
2021/01/15 08:34:15;;;;;;;4.27;3.30;;;-2.40;99.90;;;-1.66;100.00;98771.75;5000752;28;20481;-78
2021/01/15 08:36:46;;;;;;;2.70;2.20;;;-2.40;99.90;;;-1.64;100.00;98781.03;4997763;28;20461;-78
2021/01/15 08:39:15;;;;;;;3.90;3.07;;;-2.30;99.90;;;-1.57;100.00;98782.31;5000602;28;20510;-79
2021/01/15 08:41:43;;;;;;;6.67;2.70;;;-2.30;99.90;;;-1.57;100.00;98784.88;5000234;28;20450;-78
2021/01/15 08:44:14;;;;;;;3.50;2.60;;;-2.30;99.90;;;-1.55;100.00;98780.44;4999500;28;20558;-78
2021/01/15 08:46:43;;;;;;;6.93;2.73;;;-2.20;99.90;;;-1.45;100.00;98785.00;5001119;28;20502;-78
2021/01/15 08:49:11;;;;;;;6.73;2.80;;;-2.10;99.90;;;-1.38;100.00;98787.09;4999992;28;20452;-78
2021/01/15 08:51:40;;;;;;;4.43;3.03;;;-2.10;99.90;;;-1.31;100.00;98798.63;5001117;28;20485;-78
2021/01/15 08:54:11;;;;;;;4.90;2.50;;;-2.00;99.90;;;-1.25;100.00;98800.03;5000881;28;20463;-78
2021/01/15 08:56:42;;;;;;;12.33;3.03;;;-1.90;99.90;;;-1.17;100.00;98805.47;5000107;28;20460;-78
2021/01/15 08:59:11;;;;;;;9.73;3.40;;;-1.90;99.90;;;-1.09;100.00;98803.28;4999901;28;20510;-78
2021/01/15 09:01:41;;;;;;;4.33;2.93;;;-1.80;99.90;;;-0.98;100.00;98810.28;5000195;28;20488;-78
2021/01/15 09:04:11;;;;;;;5.10;3.37;;;-1.60;99.90;;;-0.89;100.00;98814.84;5000723;28;20459;-78
2021/01/15 09:06:41;;;;;;;10.00;3.33;;;-1.50;99.90;;;-0.81;100.00;98823.72;4999921;28;20563;-78
2021/01/15 09:09:12;;;;;;;5.90;3.33;;;-1.40;99.90;;;-0.72;100.00;98824.88;4998144;28;20448;-78
2021/01/15 09:11:41;;;;;;;3.77;2.90;;;-1.40;99.90;;;-0.66;100.00;98827.84;5000999;28;20452;-78
2021/01/15 09:14:12;;;;;;;4.03;3.20;;;-1.20;99.90;;;-0.60;100.00;98837.75;5000752;28;20476;-78
2021/01/15 09:16:41;;;;;;;7.73;3.90;;;-1.10;99.90;;;-0.54;100.00;98837.38;5000458;28;20466;-78
2021/01/15 09:19:12;;;;;;;13.37;4.60;;;-1.00;99.90;;;-0.47;100.00;98844.66;5002511;28;20495;-78
2021/01/15 09:21:50;;;;;;;8.03;3.77;;;-1.00;99.90;;;-0.41;100.00;98841.69;5003800;28;20458;-78
2021/01/15 09:24:21;;;;;;;6.70;4.07;;;-0.90;99.90;;;-0.37;100.00;98848.28;5004543;28;20455;-78
2021/01/15 09:26:55;;;;;;;9.10;3.63;;;-0.90;99.90;;;-0.29;100.00;98851.19;5004164;28;20489;-78
2021/01/15 09:29:23;;;;;;;3.87;3.13;;;-0.80;99.90;;;-0.28;100.00;98847.72;5003536;28;20867;-78
2021/01/15 09:31:52;;;;;;;7.80;3.87;;;-0.80;99.90;;;-0.24;100.00;98851.69;5004255;28;20466;-79
2021/01/15 09:34:22;;;;;;;4.93;3.27;;;-0.80;99.90;;;-0.20;100.00;98855.72;5003392;28;20447;-79
2021/01/15 09:36:52;;;;;;;6.90;3.87;;;-0.70;99.90;;;-0.14;100.00;98852.78;5003589;28;20458;-78
2021/01/15 09:39:23;;;;;;;4.90;3.50;;;-0.70;99.90;;;-0.13;100.00;98854.41;5004184;28;20604;-78
2021/01/15 09:41:53;;;;;;;5.47;3.60;;;-0.70;99.90;;;-0.12;100.00;98858.63;5003687;28;20454;-78
2021/01/15 09:44:24;;;;;;;5.33;4.33;;;-0.60;99.90;;;-0.07;100.00;98854.81;5003769;28;20482;-78
2021/01/15 09:46:59;;;;;;;7.43;3.87;;;-0.60;99.90;;;-0.05;100.00;98854.72;5003736;28;20946;-78
2021/01/15 09:49:28;;;;;;;7.20;3.90;;;-0.60;99.90;;;-0.03;100.00;98863.97;5002964;28;20453;-78
2021/01/15 09:51:56;;;;;;;6.87;4.30;;;-0.60;99.90;;;0.00;100.00;98865.56;5003717;28;20459;-78
2021/01/15 09:54:25;;;;;;;8.73;4.17;;;-0.50;99.90;;;0.02;100.00;98861.13;5002879;28;20454;-78
2021/01/15 09:56:52;;;;;;;8.50;4.33;;;-0.50;99.90;;;0.05;100.00;98865.22;5004116;28;20538;-78
2021/01/15 09:59:21;;;;;;;3.47;2.67;;;-0.40;99.90;;;0.04;100.00;98864.41;5003617;28;20458;-78
2021/01/15 10:01:51;;;;;;;6.03;3.90;;;-0.50;99.90;;;0.08;100.00;98872.72;5003979;28;20495;-79
2021/01/15 10:04:19;;;;;;;7.90;3.87;;;-0.40;99.90;;;0.11;100.00;98870.78;5002785;28;20478;-78
2021/01/15 10:06:47;;;;;;;7.70;3.27;;;-0.40;99.90;;;0.13;100.00;98873.28;5002196;28;20498;-78
2021/01/15 10:09:16;;;;;;;5.37;3.20;;;-0.40;99.90;;;0.13;100.00;98879.25;5003312;28;20460;-78
2021/01/15 10:11:48;;;;;;;9.13;3.90;;;-0.40;99.90;;;0.14;100.00;98888.56;5002899;28;20491;-78
2021/01/15 10:14:18;;;;;;;4.73;3.20;;;-0.40;99.90;;;0.20;100.00;98885.63;5003381;28;20582;-78
2021/01/15 10:16:49;;;;;;;6.27;3.93;;;-0.40;99.90;;;0.24;100.00;98886.25;5003163;28;20460;-78
2021/01/15 10:19:18;;;;;;;6.23;3.60;;;-0.30;99.90;;;0.30;100.00;98889.22;5004166;28;20472;-78
2021/01/15 10:21:46;;;;;;;5.83;2.93;;;-0.30;99.90;;;0.27;100.00;98904.88;5003054;28;20463;-78
2021/01/15 10:24:16;;;;;;;5.97;4.00;;;-0.30;99.90;;;0.32;100.00;98902.78;5002975;28;20471;-78
2021/01/15 10:26:43;;;;;;;4.90;3.37;;;-0.20;99.90;;;0.36;100.00;98906.81;5002570;28;20595;-78
2021/01/15 10:29:14;;;;;;;5.37;3.20;;;-0.20;99.90;;;0.37;100.00;98903.31;5002335;28;20486;-78
2021/01/15 10:31:44;;;;;;;7.10;3.50;;;-0.20;99.90;;;0.41;100.00;98902.19;4999340;28;20459;-78
2021/01/15 10:34:13;;;;;;;6.37;3.70;;;-0.10;99.90;;;0.47;100.00;98901.78;5001748;28;20505;-78
2021/01/15 10:36:41;;;;;;;5.93;3.10;;;-0.10;99.90;;;0.50;100.00;98905.88;5002780;28;20866;-78